GMMZ

Ouarzazate Airport

Ouarzazate, Morocco
METAR GMMZ 170800Z 27003KT CAVOK 06/03 Q1018 NOSIG
Observed Flight Rules
Nov-17 @ 08:00 UTC (58 minutes ago) Visual Flight Rules
Wind Visibility Clouds
270° at 3 knots 10,000+ meters
  • Clear skies
Temperatures Readings
Current 6°C / 43°F
Dewpoint 3°C / 37°F
Humidity 81%
Altimeter 30.06" Hg
Pressure 1018 hPa
Elevation 1140
METAR GMMZ 170800Z 27003KT CAVOK 06/03 Q1018 NOSIG
Observed Flight Rules
Nov-17 @ 08:00 UTC
(58 minutes ago)
VFR
Wind Visibility
270° at 3 knots 10,000+ meters
Clouds
  • Clear skies
Temperature Dewpoint
6°C / 43°F 3°C / 37°F
Humidity Altimeter Pressure
81% 30.06" Hg 1018 hPa